Time;durP1;ratioP1;P1;durP2;ratioP2;P2;SDS_P1;SDS_P2;PMS_P1;PMS_P2;Temp;Humidity;BMP_temperature;BMP_pressure;BME280_temperature;BME280_humidity;BME280_pressure;Samples;Min_cycle;Max_cycle;Signal;HPM_P1;HPM_P2
2021/10/03 00:00:14;;;;;;;18.40;12.40;;;;;;;5.58;72.35;100889.72;1701854;82;21579;-54
2021/10/03 00:02:42;;;;;;;14.50;11.43;;;;;;;5.57;72.45;100887.95;1702449;81;22027;-53
2021/10/03 00:05:11;;;;;;;18.67;12.23;;;;;;;5.53;72.51;100887.08;1700038;82;21508;-54
2021/10/03 00:07:40;;;;;;;15.57;11.73;;;;;;;5.51;72.43;100885.34;1698631;82;21089;-54
2021/10/03 00:10:09;;;;;;;18.17;12.03;;;;;;;5.46;72.38;100886.71;1703669;82;21081;-53
2021/10/03 00:12:36;;;;;;;16.13;11.00;;;;;;;5.44;72.38;100901.00;1708245;82;21128;-53
2021/10/03 00:15:04;;;;;;;12.83;11.10;;;;;;;5.41;72.40;100895.23;1699237;82;21108;-54
2021/10/03 00:17:31;;;;;;;15.93;9.73;;;;;;;5.39;72.35;100900.14;1704068;82;21046;-53
2021/10/03 00:19:58;;;;;;;15.83;9.30;;;;;;;5.37;72.43;100891.25;1701325;82;21073;-53
2021/10/03 00:22:24;;;;;;;14.90;10.13;;;;;;;5.36;72.48;100890.36;1676968;83;20996;-54
2021/10/03 00:24:51;;;;;;;14.90;10.63;;;;;;;5.37;72.48;100892.13;1706850;81;21668;-54
2021/10/03 00:27:17;;;;;;;18.93;10.70;;;;;;;5.37;72.46;100896.59;1712302;81;22264;-53
2021/10/03 00:29:43;;;;;;;17.83;10.47;;;;;;;5.38;72.42;100897.02;1713189;81;21100;-53
2021/10/03 00:32:09;;;;;;;14.33;10.20;;;;;;;5.35;72.25;100897.97;1706582;81;21044;-53
2021/10/03 00:34:38;;;;;;;13.83;10.67;;;;;;;5.32;72.13;100893.97;1707519;81;21120;-53
2021/10/03 00:37:04;;;;;;;15.70;10.80;;;;;;;5.28;72.11;100894.88;1707652;81;21295;-54
2021/10/03 00:39:31;;;;;;;19.13;11.03;;;;;;;5.24;72.06;100895.83;1713196;81;21144;-53
2021/10/03 00:41:57;;;;;;;17.67;11.60;;;;;;;5.19;72.09;100895.84;1711402;81;21124;-53
2021/10/03 00:44:23;;;;;;;17.20;12.33;;;;;;;5.15;72.16;100898.57;1708721;81;21039;-53
2021/10/03 00:46:50;;;;;;;15.37;11.90;;;;;;;5.11;72.14;100899.47;1709407;81;21618;-53
2021/10/03 00:49:17;;;;;;;14.40;10.10;;;;;;;5.06;72.15;100898.19;1712013;81;21364;-54
2021/10/03 00:51:43;;;;;;;15.67;10.13;;;;;;;5.03;72.06;100894.20;1716367;81;22689;-53
2021/10/03 00:54:09;;;;;;;17.47;9.63;;;;;;;5.01;72.13;100893.35;1708540;81;21345;-54
2021/10/03 00:56:36;;;;;;;14.93;9.07;;;;;;;5.00;72.17;100890.24;1706746;81;21025;-53
2021/10/03 00:59:03;;;;;;;12.93;9.53;;;;;;;4.99;72.18;100891.13;1710948;81;22481;-54
2021/10/03 01:01:30;;;;;;;14.20;9.00;;;;;;;4.99;72.20;100894.25;1707158;81;21089;-53
2021/10/03 01:03:57;;;;;;;15.57;9.07;;;;;;;4.95;72.23;100886.70;1672290;83;21819;-54
2021/10/03 01:06:23;;;;;;;13.73;9.07;;;;;;;4.94;72.23;100893.82;1671885;83;21132;-53
2021/10/03 01:08:51;;;;;;;18.47;10.53;;;;;;;4.93;72.19;100894.71;1674541;83;21061;-53
2021/10/03 01:11:18;;;;;;;15.83;9.83;;;;;;;4.92;72.12;100886.75;1706928;81;21642;-54
2021/10/03 01:13:47;;;;;;;14.30;9.87;;;;;;;4.88;71.99;100896.54;1707967;81;21327;-54
2021/10/03 01:16:14;;;;;;;12.53;9.43;;;;;;;4.87;71.91;100891.21;1713346;81;23298;-54
2021/10/03 01:18:40;;;;;;;16.50;10.43;;;;;;;4.82;71.86;100888.59;1713067;81;21625;-53
2021/10/03 01:21:08;;;;;;;15.30;9.33;;;;;;;4.78;71.80;100887.27;1714927;81;21139;-54
2021/10/03 01:23:35;;;;;;;15.97;10.80;;;;;;;4.75;71.73;100892.64;1662662;84;21049;-53
2021/10/03 01:26:01;;;;;;;11.67;8.37;;;;;;;4.70;71.77;100891.77;1673497;84;21007;-53
2021/10/03 01:28:27;;;;;;;10.63;7.93;;;;;;;4.68;71.69;100887.77;1671963;84;21109;-54
2021/10/03 01:30:54;;;;;;;12.60;7.70;;;;;;;4.67;71.72;100892.70;1666559;84;21065;-53
2021/10/03 01:33:24;;;;;;;11.17;7.57;;;;;;;4.65;71.78;100893.59;1638815;84;21137;-54
2021/10/03 01:35:50;;;;;;;13.30;10.40;;;;;;;4.65;71.84;100893.59;1662681;84;21112;-54
2021/10/03 01:38:18;;;;;;;12.17;8.60;;;;;;;4.65;71.87;100888.27;1662739;84;21121;-55
2021/10/03 01:40:46;;;;;;;14.27;10.20;;;;;;;4.65;71.87;100887.81;1670646;84;21152;-54
2021/10/03 01:43:13;;;;;;;14.00;10.17;;;;;;;4.63;71.88;100886.93;1673536;84;20923;-55
2021/10/03 01:45:41;;;;;;;13.83;9.93;;;;;;;4.62;71.92;100889.16;1674172;84;20970;-54
2021/10/03 01:48:16;;;;;;;20.33;11.70;;;;;;;4.61;71.95;100887.83;1704338;82;21042;-54
2021/10/03 01:50:52;;;;;;;12.87;10.37;;;;;;;4.58;72.03;100887.86;1703294;82;20923;-54
2021/10/03 01:53:22;;;;;;;14.60;9.87;;;;;;;4.54;72.10;100893.20;1697663;82;21095;-54
2021/10/03 01:55:48;;;;;;;16.63;11.37;;;;;;;4.52;72.12;100890.09;1703875;82;20962;-54
2021/10/03 01:58:16;;;;;;;17.07;11.17;;;;;;;4.48;72.20;100889.25;1702181;82;21983;-54
2021/10/03 02:00:46;;;;;;;14.27;10.43;;;;;;;4.45;72.28;100892.36;1701078;82;20940;-54
2021/10/03 02:03:12;;;;;;;12.03;8.60;;;;;;;4.43;72.27;100893.70;1704249;82;20975;-54
2021/10/03 02:05:41;;;;;;;15.27;9.07;;;;;;;4.43;72.36;100892.36;1669010;84;21111;-54
2021/10/03 02:08:08;;;;;;;14.97;8.30;;;;;;;4.43;72.48;100883.03;1668997;84;22410;-54
2021/10/03 02:10:36;;;;;;;13.20;8.37;;;;;;;4.43;72.51;100883.03;1673279;83;20930;-54
2021/10/03 02:13:04;;;;;;;16.70;9.63;;;;;;;4.46;72.57;100888.80;1703327;82;20958;-54
2021/10/03 02:15:31;;;;;;;11.67;7.83;;;;;;;4.48;72.65;100886.58;1704198;82;20921;-54
2021/10/03 02:17:57;;;;;;;12.33;9.83;;;;;;;4.50;72.76;100887.91;1704416;82;21137;-56
2021/10/03 02:20:23;;;;;;;15.87;11.10;;;;;;;4.51;72.77;100886.55;1670989;84;20975;-56
2021/10/03 02:22:50;;;;;;;11.13;9.97;;;;;;;4.51;72.83;100882.55;1704455;82;20981;-56
2021/10/03 02:25:17;;;;;;;13.60;10.13;;;;;;;4.51;72.89;100890.98;1702368;82;21144;-56
2021/10/03 02:27:43;;;;;;;15.17;10.63;;;;;;;4.50;72.95;100891.47;1706922;82;20959;-57
2021/10/03 02:30:10;;;;;;;15.53;10.43;;;;;;;4.49;72.89;100889.69;1703508;82;21120;-55
2021/10/03 02:32:37;;;;;;;14.07;10.67;;;;;;;4.47;72.98;100895.91;1705018;82;21053;-57
2021/10/03 02:36:19;;;;;;;14.77;11.73;;;;;;;4.47;73.12;100891.47;1831867;75;26520;-55
2021/10/03 02:38:46;;;;;;;12.30;10.27;;;;;;;4.40;73.24;100898.17;1808691;77;21125;-55
2021/10/03 02:41:12;;;;;;;13.10;9.80;;;;;;;4.39;73.47;100891.96;1798517;77;21238;-55
2021/10/03 02:43:41;;;;;;;16.17;10.37;;;;;;;4.41;73.61;100897.29;1805626;77;21012;-55
2021/10/03 02:46:07;;;;;;;14.40;9.70;;;;;;;4.42;73.75;100897.25;1805528;77;20866;-55
2021/10/03 02:48:37;;;;;;;15.73;8.93;;;;;;;4.43;73.92;100900.36;1806578;77;21108;-55
2021/10/03 02:51:03;;;;;;;16.00;10.23;;;;;;;4.46;74.07;100896.80;1809016;77;20953;-55
2021/10/03 02:53:29;;;;;;;13.50;9.17;;;;;;;4.49;74.10;100895.47;1808438;77;21144;-56
2021/10/03 02:55:56;;;;;;;16.67;11.33;;;;;;;4.51;74.16;100897.20;1807457;77;21036;-55
2021/10/03 02:58:22;;;;;;;16.33;11.43;;;;;;;4.53;74.24;100899.42;1804585;77;21398;-56
2021/10/03 03:00:51;;;;;;;21.13;10.70;;;;;;;4.55;74.31;100901.64;1805362;77;20994;-55
2021/10/03 03:03:17;;;;;;;16.90;12.30;;;;;;;4.56;74.39;100895.87;1768020;78;21064;-56
2021/10/03 03:05:43;;;;;;;16.07;11.40;;;;;;;4.56;74.54;100900.75;1758762;79;23313;-56
2021/10/03 03:08:10;;;;;;;18.60;12.63;;;;;;;4.58;74.59;100901.20;1744218;80;21383;-56
2021/10/03 03:10:37;;;;;;;14.70;10.83;;;;;;;4.57;74.71;100900.31;1739430;80;21072;-55
2021/10/03 03:13:04;;;;;;;15.60;10.23;;;;;;;4.58;74.83;100906.08;1761865;78;21317;-55
2021/10/03 03:15:30;;;;;;;17.83;10.47;;;;;;;4.60;74.88;100900.72;1758495;79;21401;-56
2021/10/03 03:17:57;;;;;;;15.27;11.00;;;;;;;4.62;74.90;100897.59;1757216;79;21377;-56
2021/10/03 03:20:23;;;;;;;14.47;10.33;;;;;;;4.65;74.87;100900.27;1756319;79;21516;-56
2021/10/03 03:22:50;;;;;;;19.03;12.70;;;;;;;4.68;74.89;100898.92;1758103;79;21471;-56
2021/10/03 03:25:16;;;;;;;22.27;15.03;;;;;;;4.70;74.84;100897.99;1760350;79;21491;-56
2021/10/03 03:27:43;;;;;;;28.73;16.77;;;;;;;4.73;74.91;100889.09;1760120;79;21491;-56
2021/10/03 03:30:11;;;;;;;36.30;21.10;;;;;;;4.75;74.88;100893.98;1760682;79;21140;-55
2021/10/03 03:32:37;;;;;;;30.27;19.23;;;;;;;4.77;74.88;100894.83;1753202;79;21114;-55
2021/10/03 03:35:05;;;;;;;28.80;17.80;;;;;;;4.79;74.94;100897.94;1759725;78;21098;-56
2021/10/03 03:37:32;;;;;;;27.77;16.77;;;;;;;4.80;74.93;100904.16;1760984;78;21070;-55
2021/10/03 03:39:58;;;;;;;27.40;16.97;;;;;;;4.80;74.92;100901.05;1759595;78;21132;-56
2021/10/03 03:42:24;;;;;;;22.17;15.57;;;;;;;4.79;74.94;100901.94;1758917;78;21144;-56
2021/10/03 03:44:53;;;;;;;22.37;14.37;;;;;;;4.79;74.96;100904.61;1759903;78;21105;-56
2021/10/03 03:47:19;;;;;;;21.63;12.37;;;;;;;4.80;75.01;100909.05;1762721;78;21122;-56
2021/10/03 03:49:50;;;;;;;14.33;10.67;;;;;;;4.81;74.98;100910.83;1759861;78;21077;-56
2021/10/03 03:52:13;;;;;;;18.60;9.73;;;;;;;4.83;74.98;100909.48;1765202;78;21014;-56
2021/10/03 03:54:41;;;;;;;14.30;9.90;;;;;;;4.84;75.09;100901.92;1776434;78;21197;-56
2021/10/03 03:57:08;;;;;;;14.73;10.93;;;;;;;4.88;75.15;100906.33;1758773;78;22167;-55
2021/10/03 03:59:34;;;;;;;17.07;12.10;;;;;;;4.89;75.21;100904.09;1755752;78;21114;-55
2021/10/03 04:02:01;;;;;;;19.20;12.20;;;;;;;4.92;75.20;100908.09;1759370;78;21062;-56
2021/10/03 04:04:27;;;;;;;16.40;11.40;;;;;;;4.92;75.18;100907.64;1757355;78;21114;-56
2021/10/03 04:06:54;;;;;;;21.93;13.77;;;;;;;4.93;75.21;100900.05;1756959;78;21746;-56
2021/10/03 04:09:21;;;;;;;17.00;13.70;;;;;;;4.96;75.13;100913.83;1758893;78;21127;-55
2021/10/03 04:11:47;;;;;;;19.97;12.87;;;;;;;4.96;75.06;100904.48;1756869;78;21161;-55
2021/10/03 04:14:13;;;;;;;20.97;12.90;;;;;;;4.94;75.08;100912.94;1760116;78;21054;-55
2021/10/03 04:16:40;;;;;;;25.47;14.47;;;;;;;4.92;75.01;100918.77;1758144;78;21086;-55
2021/10/03 04:19:06;;;;;;;17.30;11.93;;;;;;;4.90;75.01;100922.77;1760782;78;21133;-56
2021/10/03 04:21:32;;;;;;;16.73;10.93;;;;;;;4.91;75.04;100922.33;1761793;78;21113;-56
2021/10/03 04:23:58;;;;;;;16.40;10.90;;;;;;;4.92;75.03;100923.66;1758843;78;21048;-56
2021/10/03 04:26:28;;;;;;;12.10;9.33;;;;;;;4.93;75.06;100929.40;1754504;78;21129;-56
2021/10/03 04:28:53;;;;;;;17.27;10.63;;;;;;;4.95;75.08;100934.73;1756490;79;20955;-55
2021/10/03 04:31:20;;;;;;;21.53;11.10;;;;;;;4.98;75.03;100933.83;1758139;79;21872;-56
2021/10/03 04:33:46;;;;;;;15.70;11.33;;;;;;;4.99;75.09;100939.17;1756021;79;21359;-55
2021/10/03 04:36:13;;;;;;;18.80;12.30;;;;;;;5.03;75.22;100936.89;1755210;78;22459;-55
2021/10/03 04:38:39;;;;;;;20.00;11.90;;;;;;;5.04;75.40;100932.45;1757290;79;21828;-55
2021/10/03 04:41:05;;;;;;;22.60;13.00;;;;;;;5.08;75.40;100935.55;1756652;78;21400;-55
2021/10/03 04:43:32;;;;;;;16.80;12.33;;;;;;;5.10;75.37;100937.77;1757839;79;21429;-55
2021/10/03 04:45:58;;;;;;;24.87;13.07;;;;;;;5.14;75.41;100941.72;1757047;79;21490;-55
2021/10/03 04:48:24;;;;;;;20.00;13.90;;;;;;;5.18;75.53;100935.48;1756117;78;21457;-55
2021/10/03 04:50:52;;;;;;;17.50;12.27;;;;;;;5.21;75.54;100936.77;1757825;79;21441;-55
2021/10/03 04:53:18;;;;;;;15.57;11.67;;;;;;;5.26;75.64;100941.64;1756275;78;20944;-54
2021/10/03 04:55:45;;;;;;;15.23;10.43;;;;;;;5.33;75.68;100945.14;1755029;79;22151;-53
2021/10/03 04:58:12;;;;;;;18.07;11.20;;;;;;;5.39;75.75;100941.08;1759807;79;21398;-54
2021/10/03 05:00:38;;;;;;;15.17;10.77;;;;;;;5.45;75.77;100942.34;1765792;78;21876;-54
2021/10/03 05:03:04;;;;;;;20.43;11.63;;;;;;;5.52;75.84;100948.55;1756474;79;20978;-55
2021/10/03 05:05:32;;;;;;;17.53;11.70;;;;;;;5.59;75.92;100943.58;1757545;79;20920;-53
2021/10/03 05:07:58;;;;;;;24.50;12.00;;;;;;;5.66;75.97;100942.63;1764068;78;21089;-54
2021/10/03 05:10:24;;;;;;;17.83;12.80;;;;;;;5.72;76.00;100941.22;1768262;78;20919;-54
2021/10/03 05:12:52;;;;;;;20.47;12.07;;;;;;;5.81;76.06;100941.58;1765167;78;20980;-55
2021/10/03 05:15:20;;;;;;;17.07;11.73;;;;;;;5.93;76.19;100942.84;1761650;78;20935;-56
2021/10/03 05:17:46;;;;;;;22.83;12.30;;;;;;;6.07;76.17;100938.22;1762829;78;20962;-54
2021/10/03 05:20:12;;;;;;;14.57;9.23;;;;;;;6.22;76.04;100939.38;1762606;78;21068;-54
2021/10/03 05:22:38;;;;;;;14.43;9.67;;;;;;;6.42;75.79;100947.16;1766658;78;20932;-54
2021/10/03 05:25:05;;;;;;;16.93;10.13;;;;;;;6.60;75.48;100936.23;1765006;78;20940;-55
2021/10/03 05:27:33;;;;;;;16.90;10.13;;;;;;;6.82;75.12;100940.83;1763681;78;21044;-54
2021/10/03 05:29:59;;;;;;;16.67;11.60;;;;;;;7.04;74.61;100944.09;1763914;78;21655;-55
2021/10/03 05:32:25;;;;;;;17.43;11.70;;;;;;;7.19;74.13;100938.49;1761397;78;21100;-55
2021/10/03 05:34:51;;;;;;;17.40;11.73;;;;;;;7.33;73.57;100936.92;1757145;78;21058;-54
2021/10/03 05:37:18;;;;;;;18.60;12.27;;;;;;;7.40;73.16;100931.92;1765125;78;21140;-55
2021/10/03 05:39:44;;;;;;;17.30;11.30;;;;;;;7.44;72.78;100940.32;1768321;79;21032;-55
2021/10/03 05:42:11;;;;;;;17.27;12.23;;;;;;;7.48;72.40;100938.03;1766292;78;21061;-55
2021/10/03 05:44:37;;;;;;;17.27;11.10;;;;;;;7.50;72.18;100929.03;1767428;78;21120;-54
2021/10/03 05:47:04;;;;;;;14.60;10.10;;;;;;;7.51;71.88;100928.58;1765314;79;21090;-55
2021/10/03 05:49:31;;;;;;;14.67;9.67;;;;;;;7.54;71.82;100933.91;1769271;78;21113;-56
2021/10/03 05:51:57;;;;;;;17.97;9.83;;;;;;;7.56;71.52;100929.41;1785817;78;21062;-54
2021/10/03 05:54:24;;;;;;;16.17;10.53;;;;;;;7.58;71.34;100932.47;1784204;77;21089;-55
2021/10/03 05:56:50;;;;;;;16.40;12.03;;;;;;;7.62;71.28;100931.97;1789143;77;21126;-55
2021/10/03 05:59:17;;;;;;;16.47;10.80;;;;;;;7.66;71.33;100937.69;1789646;77;20976;-57
2021/10/03 06:01:43;;;;;;;16.10;11.57;;;;;;;7.74;71.28;100938.92;1788137;78;21121;-56
2021/10/03 06:04:10;;;;;;;21.97;14.17;;;;;;;7.81;71.21;100936.10;1780536;78;21110;-57
2021/10/03 06:06:36;;;;;;;18.23;12.93;;;;;;;7.85;71.19;100936.91;1766476;78;21125;-55
2021/10/03 06:09:02;;;;;;;19.33;12.23;;;;;;;7.89;71.23;100939.52;1769329;79;21283;-55
2021/10/03 06:11:29;;;;;;;16.50;11.13;;;;;;;7.96;71.28;100944.30;1766057;79;21566;-56
2021/10/03 06:13:57;;;;;;;14.83;10.73;;;;;;;8.03;71.20;100947.30;1769429;78;21526;-54
2021/10/03 06:16:23;;;;;;;14.20;9.97;;;;;;;8.12;71.12;100940.42;1758149;79;20988;-54
2021/10/03 06:18:51;;;;;;;16.87;9.43;;;;;;;8.22;71.05;100945.15;1784858;77;21066;-54
2021/10/03 06:21:17;;;;;;;14.40;9.63;;;;;;;8.32;71.06;100945.44;1788782;78;21134;-54
2021/10/03 06:23:45;;;;;;;16.10;10.73;;;;;;;8.41;71.06;100947.94;1790545;78;21051;-54
2021/10/03 06:26:12;;;;;;;15.83;10.97;;;;;;;8.51;71.00;100950.83;1773317;78;21090;-54
2021/10/03 06:28:39;;;;;;;17.43;12.23;;;;;;;8.62;70.94;100942.55;1787731;78;21028;-54
2021/10/03 06:31:07;;;;;;;18.70;11.80;;;;;;;8.74;70.86;100944.98;1788648;77;21098;-54
2021/10/03 06:33:37;;;;;;;15.35;10.80;;;;;;;8.85;70.90;100938.02;1788691;77;21039;-55
2021/10/03 06:36:04;;;;;;;17.30;11.77;;;;;;;8.96;70.86;100937.33;1782643;78;21988;-54
2021/10/03 06:38:31;;;;;;;26.00;12.17;;;;;;;9.05;70.81;100939.34;1779744;78;21054;-55
2021/10/03 06:40:57;;;;;;;15.13;10.33;;;;;;;9.15;70.61;100936.45;1777542;78;21059;-55
2021/10/03 06:44:11;;;;;;;21.47;10.10;;;;;;;9.32;70.41;100931.55;1775357;78;22601;-56
2021/10/03 06:46:38;;;;;;;12.95;8.85;;;;;;;9.38;70.48;100932.27;1753878;80;21772;-56
2021/10/03 06:49:04;;;;;;;11.33;7.08;;;;;;;9.51;70.40;100931.53;1750360;80;21162;-56
2021/10/03 06:51:30;;;;;;;11.48;7.53;;;;;;;9.64;69.96;100932.08;1741548;80;21110;-56
2021/10/03 06:53:57;;;;;;;12.80;8.08;;;;;;;9.77;69.60;100931.73;1741650;80;21027;-57
2021/10/03 06:56:23;;;;;;;12.05;7.62;;;;;;;9.92;69.11;100929.09;1744662;80;21124;-56
2021/10/03 06:58:49;;;;;;;11.05;8.08;;;;;;;10.05;68.55;100930.97;1743146;80;21946;-56
2021/10/03 07:01:16;;;;;;;12.75;8.25;;;;;;;10.16;68.12;100933.80;1747933;80;21084;-56
2021/10/03 07:03:42;;;;;;;13.15;8.55;;;;;;;10.26;67.52;100933.12;1741504;80;20958;-57
2021/10/03 07:06:09;;;;;;;17.10;8.15;;;;;;;10.34;67.05;100933.78;1745266;80;21022;-57
2021/10/03 07:08:35;;;;;;;11.20;7.33;;;;;;;10.42;66.31;100938.48;1748472;80;21116;-55
2021/10/03 07:11:03;;;;;;;12.95;7.60;;;;;;;10.48;65.93;100926.64;1747465;80;21110;-56
2021/10/03 07:13:30;;;;;;;10.82;8.23;;;;;;;10.54;65.46;100922.45;1744464;80;21507;-55
2021/10/03 07:15:56;;;;;;;7.70;6.17;;;;;;;10.61;65.11;100926.25;1746372;80;22172;-57
2021/10/03 07:18:22;;;;;;;10.82;7.70;;;;;;;10.67;64.74;100927.88;1747172;80;21069;-56
2021/10/03 07:20:49;;;;;;;16.90;8.70;;;;;;;10.74;64.64;100929.91;1744632;80;21057;-56
2021/10/03 07:23:15;;;;;;;11.45;7.30;;;;;;;10.82;64.20;100929.20;1744687;80;21097;-56
2021/10/03 07:25:42;;;;;;;10.03;7.83;;;;;;;10.90;64.12;100939.28;1743820;80;21078;-57
2021/10/03 07:28:08;;;;;;;13.08;8.03;;;;;;;10.97;63.61;100928.77;1750629;80;21073;-55
2021/10/03 07:30:35;;;;;;;15.93;9.25;;;;;;;11.06;63.13;100928.44;1748682;80;21051;-55
2021/10/03 07:33:02;;;;;;;13.10;7.85;;;;;;;11.13;62.74;100931.39;1742236;80;21116;-55
2021/10/03 07:35:29;;;;;;;9.33;6.62;;;;;;;11.22;62.46;100931.55;1752524;80;21136;-55
2021/10/03 07:37:56;;;;;;;9.65;7.12;;;;;;;11.28;62.33;100927.30;1739552;80;21378;-57
2021/10/03 07:40:22;;;;;;;12.65;8.15;;;;;;;11.33;62.24;100930.26;1710639;81;21080;-55
2021/10/03 07:42:49;;;;;;;15.80;8.10;;;;;;;11.41;62.03;100921.03;1706418;81;21583;-55
2021/10/03 07:45:15;;;;;;;12.35;8.23;;;;;;;11.45;61.87;100915.97;1731104;80;21612;-55
2021/10/03 07:47:42;;;;;;;14.15;8.85;;;;;;;11.47;61.94;100919.50;1736974;80;21101;-56
2021/10/03 07:50:09;;;;;;;11.68;6.72;;;;;;;11.51;61.76;100919.80;1734237;80;21121;-57
2021/10/03 07:52:35;;;;;;;9.88;6.40;;;;;;;11.56;62.01;100923.23;1731396;80;21169;-55
2021/10/03 07:55:01;;;;;;;8.63;5.35;;;;;;;11.63;61.26;100918.05;1730837;80;21090;-57
2021/10/03 07:57:28;;;;;;;13.15;6.80;;;;;;;11.75;60.30;100916.30;1737994;80;21215;-55
2021/10/03 07:59:55;;;;;;;12.15;5.70;;;;;;;11.85;59.68;100918.20;1728719;80;21085;-56
2021/10/03 08:02:21;;;;;;;5.75;5.15;;;;;;;11.94;59.25;100912.48;1731859;80;21177;-55
2021/10/03 08:04:47;;;;;;;6.60;5.95;;;;;;;12.02;58.84;100909.94;1727838;80;22172;-55
2021/10/03 08:07:13;;;;;;;8.63;7.37;;;;;;;12.10;58.79;100913.23;1732009;80;21072;-54
2021/10/03 08:09:40;;;;;;;10.00;6.40;;;;;;;12.19;58.71;100915.19;1695842;82;21045;-55
2021/10/03 08:12:07;;;;;;;9.60;6.97;;;;;;;12.28;58.64;100913.50;1686254;83;21062;-55
2021/10/03 08:15:54;;;;;;;10.83;6.10;;;;;;;12.45;58.17;100907.01;1791247;78;22730;-56
2021/10/03 08:18:20;;;;;;;7.30;6.53;;;;;;;12.50;57.92;100911.78;1762033;79;21069;-57
2021/10/03 08:20:47;;;;;;;11.93;6.87;;;;;;;12.57;57.64;100909.26;1761748;79;21227;-56
2021/10/03 08:23:14;;;;;;;11.90;7.05;;;;;;;12.64;57.64;100905.84;1760768;79;21005;-56
2021/10/03 08:25:41;;;;;;;15.85;8.10;;;;;;;12.73;57.85;100905.02;1762251;79;21037;-56
2021/10/03 08:30:48;;;;;;;9.07;6.20;;;;;;;12.88;56.92;100900.83;1756531;79;23182;-56
2021/10/03 08:33:14;;;;;;;8.23;5.60;;;;;;;12.87;56.80;100899.06;1721818;81;21034;-54
2021/10/03 08:35:41;;;;;;;8.05;5.75;;;;;;;12.92;56.90;100899.78;1720071;81;21214;-54
2021/10/03 08:38:08;;;;;;;10.60;5.42;;;;;;;12.99;56.69;100912.11;1720376;81;21328;-55
2021/10/03 08:40:34;;;;;;;11.88;5.58;;;;;;;13.04;56.20;100910.09;1721858;81;21053;-56
2021/10/03 08:43:04;;;;;;;5.20;3.40;;;;;;;13.10;56.30;100904.42;1721423;81;21744;-55
2021/10/03 08:45:32;;;;;;;4.37;2.62;;;;;;;13.19;55.67;100903.20;1723612;81;22710;-54
2021/10/03 08:47:58;;;;;;;2.80;1.85;;;;;;;13.29;53.78;100905.95;1722050;81;22192;-55
2021/10/03 08:51:34;;;;;;;5.57;2.40;;;;;;;13.50;51.97;100897.43;1787874;78;22509;-55
2021/10/03 08:54:02;;;;;;;4.30;2.02;;;;;;;13.56;51.37;100903.45;1762541;79;21073;-54
2021/10/03 08:56:29;;;;;;;6.90;1.87;;;;;;;13.69;51.36;100901.13;1760995;79;21111;-55
2021/10/03 08:58:56;;;;;;;4.05;1.90;;;;;;;13.80;50.26;100896.11;1740199;80;21203;-54
2021/10/03 09:01:22;;;;;;;6.28;1.92;;;;;;;13.89;49.08;100898.88;1762606;79;21116;-54
2021/10/03 09:03:50;;;;;;;10.48;2.80;;;;;;;13.97;48.73;100905.72;1764137;79;20973;-55
2021/10/03 09:06:16;;;;;;;7.53;2.58;;;;;;;14.04;48.62;100898.20;1758504;79;21119;-53
2021/10/03 09:08:49;;;;;;;5.12;2.25;;;;;;;14.17;48.44;100899.91;1762550;79;21069;-54
2021/10/03 09:11:17;;;;;;;2.25;1.37;;;;;;;14.17;48.44;100899.91;1761284;79;21132;-55
2021/10/03 09:13:48;;;;;;;2.33;1.65;;;;;;;14.25;47.46;100905.86;1762192;79;21088;-55
2021/10/03 09:16:33;;;;;;;2.92;1.60;;;;;;;14.37;45.95;100903.95;1764896;79;20902;-55
2021/10/03 09:19:00;;;;;;;3.60;1.40;;;;;;;14.37;45.95;100903.95;1761658;79;21273;-55
2021/10/03 09:21:36;;;;;;;3.67;1.72;;;;;;;14.42;45.40;100903.30;1760253;79;24040;-55
2021/10/03 09:24:08;;;;;;;3.52;1.60;;;;;;;14.46;45.30;100899.98;1763544;79;21104;-55
2021/10/03 09:26:35;;;;;;;5.95;1.65;;;;;;;14.51;45.64;100907.41;1758835;79;21050;-54
2021/10/03 09:29:23;;;;;;;5.03;1.67;;;;;;;14.58;44.99;100897.57;1759735;79;21072;-55
2021/10/03 09:32:16;;;;;;;4.40;1.72;;;;;;;14.58;44.99;100897.57;1751751;79;21096;-54
2021/10/03 09:34:47;;;;;;;2.92;1.62;;;;;;;14.62;44.97;100903.73;1732823;81;21515;-54
2021/10/03 09:37:23;;;;;;;9.00;1.75;;;;;;;14.67;44.86;100899.85;1735445;81;21083;-53
2021/10/03 09:40:08;;;;;;;4.78;2.02;;;;;;;14.73;44.52;100902.73;1731962;81;21579;-54
2021/10/03 09:42:35;;;;;;;4.40;1.87;;;;;;;14.79;44.87;100898.88;1732057;81;21069;-55
2021/10/03 09:45:14;;;;;;;4.72;1.40;;;;;;;14.86;45.15;100904.41;1734393;81;20969;-56
2021/10/03 09:47:44;;;;;;;5.00;2.33;;;;;;;14.92;45.05;100898.68;1736790;81;21110;-55
2021/10/03 09:50:16;;;;;;;3.75;2.08;;;;;;;14.98;44.69;100896.55;1730941;81;21054;-54
2021/10/03 09:52:42;;;;;;;9.80;2.47;;;;;;;15.02;44.50;100892.75;1721226;82;20888;-56
2021/10/03 09:55:14;;;;;;;3.70;1.77;;;;;;;15.06;44.62;100887.56;1722347;82;20947;-54
2021/10/03 09:57:42;;;;;;;3.35;1.60;;;;;;;15.10;44.58;100885.13;1719607;82;21356;-56
2021/10/03 10:00:10;;;;;;;4.70;2.25;;;;;;;15.14;44.63;100879.08;1718208;82;21751;-56
2021/10/03 10:02:37;;;;;;;5.75;1.20;;;;;;;15.19;45.38;100873.41;1718478;82;21109;-54
2021/10/03 10:05:04;;;;;;;3.60;1.55;;;;;;;15.24;44.16;100876.77;1715463;82;21490;-54
2021/10/03 10:07:33;;;;;;;3.35;1.75;;;;;;;15.27;43.44;100872.56;1673363;83;21118;-56
2021/10/03 10:09:59;;;;;;;6.70;1.50;;;;;;;15.30;43.39;100869.70;1719692;82;21324;-56
2021/10/03 10:12:26;;;;;;;4.33;1.20;;;;;;;15.34;43.53;100861.80;1717981;82;21123;-55
2021/10/03 10:15:04;;;;;;;4.40;1.20;;;;;;;15.38;42.94;100865.66;1718457;82;21295;-55
2021/10/03 10:17:40;;;;;;;4.92;1.70;;;;;;;15.43;42.58;100865.41;1721502;82;20944;-55
2021/10/03 10:20:25;;;;;;;3.22;1.45;;;;;;;15.43;42.37;100862.69;1713531;82;28284;-55
2021/10/03 10:22:56;;;;;;;7.08;1.30;;;;;;;15.42;42.60;100857.73;1712878;81;21082;-55
2021/10/03 10:25:54;;;;;;;2.87;1.20;;;;;;;15.43;42.73;100856.78;1712251;81;21152;-55
2021/10/03 10:28:34;;;;;;;3.33;1.30;;;;;;;15.46;43.10;100860.71;1720197;82;21498;-56
2021/10/03 10:31:15;;;;;;;2.22;1.20;;;;;;;15.46;43.11;100853.05;1711943;82;21071;-55
2021/10/03 10:34:00;;;;;;;3.65;1.30;;;;;;;15.47;42.93;100851.63;1716124;81;20935;-56
2021/10/03 10:36:29;;;;;;;2.45;1.20;;;;;;;15.48;42.94;100852.50;1722907;82;20922;-56
2021/10/03 10:39:14;;;;;;;3.40;1.20;;;;;;;15.48;42.79;100852.50;1721200;82;22095;-55
2021/10/03 10:41:47;;;;;;;2.83;1.02;;;;;;;15.46;43.14;100846.27;1721482;82;21382;-56
2021/10/03 10:44:32;;;;;;;3.47;1.00;;;;;;;15.44;42.98;100845.45;1720408;82;21002;-57
2021/10/03 10:47:15;;;;;;;3.10;0.90;;;;;;;15.45;42.63;100839.95;1721518;82;21446;-55
2021/10/03 10:49:51;;;;;;;1.72;1.00;;;;;;;15.49;42.83;100835.23;1719569;82;20970;-56
2021/10/03 10:52:25;;;;;;;4.65;1.15;;;;;;;15.54;42.67;100834.57;1721591;82;21335;-57
2021/10/03 10:55:11;;;;;;;9.53;1.47;;;;;;;15.55;42.77;100825.48;1722065;82;21729;-55
2021/10/03 10:57:57;;;;;;;7.12;1.40;;;;;;;15.56;43.12;100835.86;1720902;82;21414;-55
2021/10/03 11:00:28;;;;;;;3.45;1.02;;;;;;;15.55;42.96;100828.19;1720645;81;20966;-57
2021/10/03 11:03:00;;;;;;;5.55;1.00;;;;;;;15.56;43.10;100821.81;1720044;82;20986;-56
2021/10/03 11:05:40;;;;;;;1.57;0.90;;;;;;;15.59;42.97;100827.06;1719244;82;21261;-55
2021/10/03 11:08:15;;;;;;;3.20;0.90;;;;;;;15.61;42.75;100818.37;1720105;82;20903;-56
2021/10/03 11:11:09;;;;;;;3.83;1.00;;;;;;;15.63;42.60;100820.53;1718452;81;21528;-56
2021/10/03 11:13:48;;;;;;;3.27;0.90;;;;;;;15.63;42.69;100816.94;1722079;82;21434;-55
2021/10/03 11:16:29;;;;;;;5.73;1.00;;;;;;;15.65;42.68;100817.23;1647755;85;21014;-55
2021/10/03 11:19:21;;;;;;;1.98;0.98;;;;;;;15.66;42.75;100818.11;1681874;83;21092;-55
2021/10/03 11:21:53;;;;;;;2.00;0.98;;;;;;;15.65;42.35;100810.95;1677271;83;22099;-57
2021/10/03 11:24:31;;;;;;;2.42;1.20;;;;;;;15.65;42.55;100810.45;1714614;81;21136;-55
2021/10/03 11:27:16;;;;;;;4.33;1.10;;;;;;;15.66;42.82;100806.78;1715873;81;21124;-55
2021/10/03 11:29:52;;;;;;;1.95;1.32;;;;;;;15.69;43.22;100807.98;1671101;83;21081;-55
2021/10/03 11:32:27;;;;;;;2.25;0.95;;;;;;;15.71;42.61;100802.00;1674866;83;21210;-56
2021/10/03 11:35:16;;;;;;;3.27;1.05;;;;;;;15.71;42.59;100801.12;1718334;81;21047;-56